Time;durP1;ratioP1;P1;durP2;ratioP2;P2;SDS_P1;SDS_P2;PMS_P1;PMS_P2;Temp;Humidity;BMP_temperature;BMP_pressure;BME280_temperature;BME280_humidity;BME280_pressure;Samples;Min_cycle;Max_cycle;Signal;HPM_P1;HPM_P2
2024/04/09 00:01:01;;;;;;;20.53;2.60;;;19.10;1.00;;;;;;5457157;26;20707;-82
2024/04/09 00:03:29;;;;;;;26.33;3.00;;;19.00;1.00;;;;;;5455948;26;20485;-82
2024/04/09 00:05:55;;;;;;;15.43;2.30;;;18.90;1.00;;;;;;5456118;26;20544;-81
2024/04/09 00:08:21;;;;;;;24.87;2.83;;;18.90;1.00;;;;;;5457747;26;20443;-82
2024/04/09 00:10:47;;;;;;;17.80;2.50;;;18.90;1.00;;;;;;5458007;26;20445;-83
2024/04/09 00:13:14;;;;;;;17.17;2.90;;;18.80;1.00;;;;;;5457243;26;20454;-82
2024/04/09 00:15:40;;;;;;;23.47;5.27;;;18.80;1.00;;;;;;5426140;26;20502;-82
2024/04/09 00:18:14;;;;;;;16.50;3.07;;;18.90;1.00;;;;;;5457435;26;20447;-82
2024/04/09 00:20:42;;;;;;;22.33;2.77;;;18.90;1.00;;;;;;5457496;26;20514;-82
2024/04/09 00:23:09;;;;;;;24.83;4.13;;;18.90;1.00;;;;;;5456816;26;20469;-82
2024/04/09 00:25:37;;;;;;;17.20;2.70;;;19.00;1.00;;;;;;5457307;26;20509;-82
2024/04/09 00:28:03;;;;;;;28.60;2.60;;;19.00;1.00;;;;;;5458205;26;20446;-82
2024/04/09 00:30:29;;;;;;;19.83;3.07;;;18.90;1.00;;;;;;5396681;26;20446;-83
2024/04/09 00:32:55;;;;;;;19.93;2.90;;;18.90;1.00;;;;;;5427635;26;20460;-84
2024/04/09 00:35:21;;;;;;;30.67;2.60;;;19.00;1.00;;;;;;5458982;26;20216;-82
2024/04/09 00:37:57;;;;;;;16.50;2.50;;;19.10;1.00;;;;;;5459166;26;20241;-83
2024/04/09 00:40:26;;;;;;;22.30;2.50;;;19.20;1.00;;;;;;5457960;26;20845;-82
2024/04/09 00:42:57;;;;;;;24.53;2.50;;;19.30;1.00;;;;;;5460023;26;20456;-82
2024/04/09 00:45:23;;;;;;;23.17;3.43;;;19.30;1.00;;;;;;5461311;26;20559;-82
2024/04/09 00:47:56;;;;;;;23.67;2.70;;;19.30;1.00;;;;;;5461756;26;20439;-82
2024/04/09 00:50:23;;;;;;;25.40;3.30;;;19.20;1.00;;;;;;5461305;26;20439;-81
2024/04/09 00:52:51;;;;;;;20.60;2.63;;;19.20;1.00;;;;;;5429403;26;20459;-82
2024/04/09 00:55:20;;;;;;;28.17;3.57;;;19.10;1.00;;;;;;5428728;26;20849;-82
2024/04/09 00:57:48;;;;;;;19.00;2.33;;;19.10;1.00;;;;;;5460478;26;20497;-82
2024/04/09 01:00:16;;;;;;;19.70;3.40;;;19.00;1.00;;;;;;5459961;26;20493;-82
2024/04/09 01:02:42;;;;;;;22.40;2.30;;;19.00;1.00;;;;;;5460690;26;20512;-83
2024/04/09 01:05:10;;;;;;;26.50;3.73;;;18.90;1.00;;;;;;5461023;26;20438;-82
2024/04/09 01:07:36;;;;;;;16.57;2.10;;;18.80;1.00;;;;;;5459766;26;20217;-82
2024/04/09 01:10:03;;;;;;;14.97;2.00;;;18.70;1.00;;;;;;5429727;26;20448;-82
2024/04/09 01:12:30;;;;;;;20.67;2.57;;;18.60;1.00;;;;;;5460639;26;20454;-82
2024/04/09 01:14:56;;;;;;;20.33;2.43;;;18.70;1.00;;;;;;5460279;26;20824;-82
2024/04/09 01:17:23;;;;;;;18.00;1.80;;;18.50;1.00;;;;;;5461210;26;20435;-81
2024/04/09 01:19:48;;;;;;;34.47;2.63;;;18.50;1.00;;;;;;5428323;26;20255;-82
2024/04/09 01:22:14;;;;;;;21.40;2.23;;;18.40;1.00;;;;;;5460176;26;20451;-82
2024/04/09 01:24:40;;;;;;;21.10;2.70;;;18.40;1.00;;;;;;5429316;26;20220;-82
2024/04/09 01:27:10;;;;;;;17.23;2.03;;;18.40;1.00;;;;;;5460340;26;20259;-82
2024/04/09 01:29:35;;;;;;;17.47;1.73;;;18.30;1.00;;;;;;5428489;26;20209;-82
2024/04/09 01:32:01;;;;;;;14.33;1.70;;;18.20;1.00;;;;;;5462667;26;20459;-82
2024/04/09 01:34:27;;;;;;;22.50;3.10;;;18.20;1.00;;;;;;5460959;26;20597;-82
2024/04/09 01:36:55;;;;;;;20.10;2.27;;;18.20;1.00;;;;;;5461091;26;20578;-83
2024/04/09 01:39:20;;;;;;;18.30;2.40;;;18.20;1.00;;;;;;5460890;26;20792;-82
2024/04/09 01:41:46;;;;;;;19.63;2.03;;;18.10;1.00;;;;;;5460526;26;20493;-82
2024/04/09 01:44:12;;;;;;;17.37;2.50;;;18.00;1.00;;;;;;5429401;26;20221;-83
2024/04/09 01:46:37;;;;;;;14.00;1.87;;;18.00;1.00;;;;;;5429078;26;20232;-82
2024/04/09 01:49:04;;;;;;;18.43;1.67;;;17.90;1.00;;;;;;5461733;26;20213;-83
2024/04/09 01:51:30;;;;;;;16.90;2.10;;;17.90;1.00;;;;;;5460915;26;20225;-83
2024/04/09 01:53:56;;;;;;;19.47;2.40;;;17.90;1.00;;;;;;5427665;26;20493;-82
2024/04/09 01:56:21;;;;;;;19.80;1.70;;;17.90;1.00;;;;;;5460223;26;20443;-82
2024/04/09 01:58:47;;;;;;;19.53;2.07;;;17.80;1.00;;;;;;5460237;26;20209;-82
2024/04/09 02:01:14;;;;;;;18.13;2.20;;;17.70;1.00;;;;;;5460490;26;20214;-82
2024/04/09 02:03:41;;;;;;;19.83;2.53;;;17.70;1.00;;;;;;5612621;21;20288;-91
2024/04/09 02:08:37;;;;;;;16.30;1.53;;;17.60;1.00;;;;;;5457849;26;20885;-82
2024/04/09 02:11:05;;;;;;;26.63;2.63;;;17.60;1.00;;;;;;5460052;26;20430;-82
2024/04/09 02:13:31;;;;;;;17.43;2.70;;;17.60;1.00;;;;;;5460076;26;20439;-82
2024/04/09 02:16:12;;;;;;;18.00;2.10;;;17.60;1.00;;;;;;5457687;26;20849;-82
2024/04/09 02:18:39;;;;;;;19.00;2.40;;;17.60;1.00;;;;;;5459630;26;20434;-83
2024/04/09 02:21:09;;;;;;;17.07;2.07;;;17.50;1.00;;;;;;5459537;26;20434;-82
2024/04/09 02:23:35;;;;;;;19.20;2.17;;;17.50;1.00;;;;;;5458926;26;20491;-82
2024/04/09 02:26:00;;;;;;;17.00;1.40;;;17.50;1.00;;;;;;5458950;26;20502;-82
2024/04/09 02:28:26;;;;;;;18.30;3.07;;;17.50;1.00;;;;;;5458468;26;20487;-82
2024/04/09 02:30:52;;;;;;;16.30;1.57;;;17.40;1.00;;;;;;5458842;26;20213;-82
2024/04/09 02:33:18;;;;;;;22.50;2.27;;;17.40;1.00;;;;;;5458500;26;20225;-82
2024/04/09 02:36:04;;;;;;;19.23;1.80;;;17.40;1.00;;;;;;5458577;26;20217;-82
2024/04/09 02:38:35;;;;;;;25.53;2.00;;;17.40;1.00;;;;;;5456628;26;20450;-82
2024/04/09 02:41:05;;;;;;;15.07;2.00;;;17.40;5.20;;;;;;5458840;26;20434;-82
2024/04/09 02:43:31;;;;;;;16.33;1.90;;;17.30;14.10;;;;;;5458895;26;20984;-82
2024/04/09 02:45:58;;;;;;;15.13;1.83;;;17.30;14.10;;;;;;5457064;26;20443;-82
2024/04/09 02:48:24;;;;;;;16.90;1.77;;;17.20;13.90;;;;;;5459160;26;20321;-82
2024/04/09 02:50:58;;;;;;;16.30;2.30;;;17.20;12.90;;;;;;5458934;26;20446;-82
2024/04/09 02:53:25;;;;;;;20.17;2.00;;;17.20;13.20;;;;;;5458301;26;20548;-82
2024/04/09 02:56:05;;;;;;;18.40;2.00;;;17.10;15.90;;;;;;5458923;26;20556;-82
2024/04/09 02:58:34;;;;;;;15.50;1.73;;;17.00;29.80;;;;;;5458553;26;20443;-81
2024/04/09 03:01:08;;;;;;;14.60;2.50;;;16.90;44.70;;;;;;5458371;26;20435;-82
2024/04/09 03:03:35;;;;;;;15.50;2.10;;;16.70;53.90;;;;;;5456866;26;20443;-82
2024/04/09 03:06:11;;;;;;;19.13;1.97;;;16.70;56.70;;;;;;5458201;26;20438;-82
2024/04/09 03:08:40;;;;;;;15.23;1.63;;;16.70;59.00;;;;;;5456332;26;20438;-82
2024/04/09 03:11:19;;;;;;;19.70;2.23;;;16.70;61.00;;;;;;5458301;26;20447;-82
2024/04/09 03:13:47;;;;;;;22.67;2.67;;;16.60;68.10;;;;;;5456813;26;20979;-82
2024/04/09 03:16:18;;;;;;;16.73;1.70;;;16.60;74.60;;;;;;5458134;26;20443;-82
2024/04/09 03:18:44;;;;;;;14.70;2.10;;;16.50;83.00;;;;;;5458628;26;20891;-83
2024/04/09 03:21:10;;;;;;;18.57;1.63;;;16.50;90.30;;;;;;5456471;26;20777;-82
2024/04/09 03:23:37;;;;;;;18.33;2.50;;;16.50;89.70;;;;;;5458496;26;20502;-83
2024/04/09 03:26:02;;;;;;;15.63;2.00;;;16.50;89.50;;;;;;5458212;26;20446;-82
2024/04/09 03:28:28;;;;;;;19.60;2.73;;;16.50;87.50;;;;;;5458545;26;20513;-82
2024/04/09 03:30:58;;;;;;;21.23;2.33;;;16.60;84.60;;;;;;5458719;26;20209;-82
2024/04/09 03:33:24;;;;;;;17.90;2.87;;;16.60;89.50;;;;;;5456551;26;20244;-83
2024/04/09 03:35:53;;;;;;;26.03;2.47;;;16.60;88.10;;;;;;5457836;26;20784;-82
2024/04/09 03:38:19;;;;;;;22.13;2.60;;;16.60;86.40;;;;;;5458186;26;20260;-82
2024/04/09 03:41:01;;;;;;;17.20;3.33;;;16.60;83.00;;;;;;5456143;26;20443;-82
2024/04/09 03:43:27;;;;;;;16.03;2.43;;;16.60;88.30;;;;;;5457988;26;20737;-81
2024/04/09 03:46:09;;;;;;;24.07;3.37;;;16.60;93.40;;;;;;5455486;26;20447;-82
2024/04/09 03:48:39;;;;;;;16.63;2.13;;;16.60;93.60;;;;;;5457756;26;20438;-82
2024/04/09 03:51:05;;;;;;;15.67;1.93;;;16.60;94.40;;;;;;5455467;26;20494;-81
2024/04/09 03:53:32;;;;;;;15.00;2.00;;;16.60;94.20;;;;;;5457296;26;20594;-81
2024/04/09 03:56:03;;;;;;;17.67;1.70;;;16.60;95.80;;;;;;5457317;26;20435;-82
2024/04/09 03:58:30;;;;;;;14.60;1.70;;;16.60;94.50;;;;;;5457043;26;20796;-82
2024/04/09 04:00:57;;;;;;;15.60;1.80;;;16.60;92.60;;;;;;5455619;26;20506;-83
2024/04/09 04:03:23;;;;;;;15.63;2.17;;;16.60;90.30;;;;;;5457275;26;21041;-81
2024/04/09 04:05:56;;;;;;;19.87;2.80;;;16.60;87.00;;;;;;5456598;26;20435;-81
2024/04/09 04:08:23;;;;;;;24.43;2.50;;;16.60;82.50;;;;;;5489989;26;20444;-81
2024/04/09 04:10:58;;;;;;;19.80;2.53;;;16.60;80.40;;;;;;5492559;26;21080;-81
2024/04/09 04:13:26;;;;;;;20.33;1.93;;;16.60;81.40;;;;;;5492509;26;20771;-81
2024/04/09 04:16:11;;;;;;;16.60;1.73;;;16.60;78.80;;;;;;5492300;26;20433;-81
2024/04/09 04:18:39;;;;;;;17.10;2.03;;;16.60;79.00;;;;;;5460502;26;20851;-80
2024/04/09 04:21:06;;;;;;;15.43;1.77;;;16.50;88.30;;;;;;5492448;26;20492;-81
2024/04/09 04:23:35;;;;;;;20.83;2.53;;;16.30;95.60;;;;;;5493472;26;20490;-82
2024/04/09 04:26:06;;;;;;;14.90;1.83;;;16.20;99.90;;;;;;5492553;26;20856;-81
2024/04/09 04:28:38;;;;;;;16.23;2.07;;;16.10;99.90;;;;;;5492346;26;20441;-82
2024/04/09 04:31:17;;;;;;;16.00;2.57;;;16.00;99.90;;;;;;5459890;26;20497;-82
2024/04/09 04:33:44;;;;;;;20.73;2.17;;;16.00;99.90;;;;;;5459816;26;20489;-81
2024/04/09 04:36:11;;;;;;;17.90;1.90;;;16.00;99.90;;;;;;5492190;26;21083;-81
2024/04/09 04:38:38;;;;;;;15.10;1.80;;;16.00;99.90;;;;;;5459895;26;20799;-82
2024/04/09 04:41:04;;;;;;;20.77;2.20;;;16.00;99.90;;;;;;5492150;26;20489;-82
2024/04/09 04:43:34;;;;;;;15.17;2.03;;;16.00;99.90;;;;;;5492199;26;20445;-82
2024/04/09 04:46:00;;;;;;;18.33;1.70;;;16.00;99.90;;;;;;5459712;26;20449;-81
2024/04/09 04:48:27;;;;;;;22.43;3.07;;;15.90;99.90;;;;;;5429917;26;20496;-82
2024/04/09 04:50:53;;;;;;;16.90;1.67;;;15.90;99.90;;;;;;5492010;26;20433;-81
2024/04/09 04:53:19;;;;;;;15.93;1.70;;;15.90;99.90;;;;;;5491799;26;21070;-83
2024/04/09 04:55:46;;;;;;;18.23;1.93;;;16.00;99.90;;;;;;5491860;26;20489;-82
2024/04/09 04:58:12;;;;;;;16.97;2.07;;;16.00;99.90;;;;;;5491853;26;20840;-81
2024/04/09 05:00:39;;;;;;;19.33;1.80;;;16.00;99.90;;;;;;5459840;26;20438;-82
2024/04/09 05:03:05;;;;;;;20.47;2.10;;;16.00;99.90;;;;;;5459811;26;20589;-81
2024/04/09 05:05:31;;;;;;;17.60;1.80;;;15.90;99.90;;;;;;5491907;26;20433;-82
2024/04/09 05:07:57;;;;;;;15.03;2.00;;;15.90;99.90;;;;;;5460097;26;20511;-82
2024/04/09 05:10:23;;;;;;;16.40;1.50;;;15.90;99.90;;;;;;5459628;26;20946;-83
2024/04/09 05:12:53;;;;;;;14.07;1.80;;;15.90;99.90;;;;;;5492022;26;20587;-82
2024/04/09 05:15:19;;;;;;;15.00;1.40;;;15.90;99.90;;;;;;5491949;26;20933;-81
2024/04/09 05:17:46;;;;;;;13.50;1.53;;;15.90;99.90;;;;;;5491868;26;20555;-82
2024/04/09 05:20:14;;;;;;;15.70;1.50;;;15.90;99.90;;;;;;5459107;26;20583;-82
2024/04/09 05:22:45;;;;;;;14.43;1.40;;;15.90;99.90;;;;;;5491104;26;20505;-81
2024/04/09 05:25:12;;;;;;;18.27;1.93;;;16.00;99.90;;;;;;5491241;26;20445;-81
2024/04/09 05:27:38;;;;;;;15.03;1.20;;;16.00;99.90;;;;;;5491031;26;20434;-81
2024/04/09 05:30:05;;;;;;;15.90;1.73;;;16.00;99.90;;;;;;5493976;26;20437;-82
2024/04/09 05:32:35;;;;;;;14.40;1.60;;;16.00;99.90;;;;;;5493856;26;20499;-81
2024/04/09 05:35:09;;;;;;;16.70;2.13;;;16.10;99.90;;;;;;5461475;26;20461;-81
2024/04/09 05:37:35;;;;;;;14.80;1.33;;;16.00;99.90;;;;;;5493437;26;20449;-81
2024/04/09 05:40:00;;;;;;;17.20;1.60;;;16.00;99.90;;;;;;5493247;26;20492;-81
2024/04/09 05:42:26;;;;;;;18.93;1.30;;;16.00;99.90;;;;;;5493846;26;21443;-81
2024/04/09 05:44:52;;;;;;;13.03;1.00;;;16.00;99.90;;;;;;5493096;26;20514;-81
2024/04/09 05:47:18;;;;;;;14.37;1.10;;;16.10;99.90;;;;;;5461154;26;20303;-82
2024/04/09 05:49:47;;;;;;;14.60;0.80;;;16.10;99.90;;;;;;5493273;26;20272;-81
2024/04/09 05:52:13;;;;;;;14.13;0.90;;;16.10;99.90;;;;;;5461165;26;20458;-82
2024/04/09 05:54:40;;;;;;;13.43;1.20;;;16.10;99.90;;;;;;5494015;26;21187;-82
2024/04/09 05:57:06;;;;;;;13.20;1.10;;;16.10;99.90;;;;;;5493571;26;20215;-80
2024/04/09 05:59:31;;;;;;;15.10;1.30;;;16.10;99.90;;;;;;5493659;26;21080;-81
2024/04/09 06:01:57;;;;;;;13.00;0.80;;;16.10;99.90;;;;;;5493785;26;20224;-81
2024/04/09 06:04:23;;;;;;;12.63;0.83;;;15.90;99.90;;;;;;5493694;26;20259;-80
2024/04/09 06:06:50;;;;;;;13.40;1.00;;;15.90;99.90;;;;;;5493049;26;20791;-81
2024/04/09 06:09:16;;;;;;;13.73;1.00;;;15.90;99.90;;;;;;5461045;26;20268;-81
2024/04/09 06:11:41;;;;;;;13.03;0.90;;;15.90;99.90;;;;;;5461469;26;20465;-82
2024/04/09 06:14:07;;;;;;;12.27;0.60;;;15.80;99.90;;;;;;5493822;26;20551;-82
2024/04/09 06:16:33;;;;;;;13.00;0.70;;;15.80;99.90;;;;;;5493735;26;20220;-81
2024/04/09 06:18:58;;;;;;;15.53;0.87;;;15.60;99.90;;;;;;5461241;26;20686;-81
2024/04/09 06:21:24;;;;;;;12.53;0.80;;;15.60;99.90;;;;;;5493793;26;20224;-81
2024/04/09 06:23:50;;;;;;;12.37;0.73;;;15.60;99.60;;;;;;5494290;26;20255;-81
2024/04/09 06:26:20;;;;;;;14.20;1.17;;;15.40;98.90;;;;;;5461827;26;20671;-82
2024/04/09 06:28:49;;;;;;;12.83;0.73;;;15.40;95.10;;;;;;5495399;26;20212;-81
2024/04/09 06:31:15;;;;;;;12.37;0.80;;;15.20;93.30;;;;;;5494849;26;20490;-81
2024/04/09 06:33:41;;;;;;;12.67;0.90;;;15.10;92.60;;;;;;5494293;26;20438;-82
2024/04/09 06:36:07;;;;;;;12.63;0.70;;;15.10;93.70;;;;;;5494126;26;20260;-82
2024/04/09 06:38:33;;;;;;;12.60;0.80;;;15.00;95.10;;;;;;5461662;26;20246;-81
2024/04/09 06:40:59;;;;;;;12.90;0.70;;;15.00;93.30;;;;;;5461073;26;20708;-81
2024/04/09 06:43:24;;;;;;;12.43;0.70;;;15.00;92.60;;;;;;5460965;26;20213;-81
2024/04/09 06:45:50;;;;;;;12.37;0.70;;;14.90;89.20;;;;;;5461481;26;20449;-80
2024/04/09 06:48:15;;;;;;;12.27;0.70;;;14.80;91.40;;;;;;5461341;26;20550;-80
2024/04/09 06:50:42;;;;;;;13.73;0.73;;;14.80;92.80;;;;;;5461234;26;20220;-82
2024/04/09 06:53:07;;;;;;;16.17;1.03;;;14.80;92.80;;;;;;5493383;26;20228;-81
2024/04/09 06:55:33;;;;;;;12.47;0.70;;;14.60;94.70;;;;;;5460846;26;20555;-81
2024/04/09 06:57:59;;;;;;;12.50;0.80;;;14.60;92.60;;;;;;5493153;26;20263;-82
2024/04/09 07:00:25;;;;;;;12.47;0.80;;;14.50;94.70;;;;;;5492682;26;20216;-85
2024/04/09 07:02:52;;;;;;;13.67;0.80;;;14.40;98.20;;;;;;5492086;26;20551;-82
2024/04/09 07:05:19;;;;;;;13.33;0.73;;;14.50;98.60;;;;;;5491637;26;20840;-82
2024/04/09 07:07:44;;;;;;;16.03;1.00;;;14.50;95.40;;;;;;5459435;26;20461;-82
2024/04/09 07:10:12;;;;;;;13.00;0.80;;;14.40;92.70;;;;;;5492019;26;20433;-83
2024/04/09 07:12:38;;;;;;;12.37;0.70;;;14.40;90.30;;;;;;5491516;26;20718;-83
2024/04/09 07:15:04;;;;;;;12.47;0.80;;;14.30;82.50;;;;;;5492133;26;20438;-82
2024/04/09 07:17:30;;;;;;;12.17;0.70;;;14.20;66.00;;;;;;5459809;26;20478;-82
2024/04/09 07:19:58;;;;;;;12.70;0.80;;;14.20;47.50;;;;;;5459714;26;20442;-82
2024/04/09 07:22:24;;;;;;;17.83;0.80;;;14.00;46.40;;;;;;5492376;26;20589;-82
2024/04/09 07:24:50;;;;;;;12.17;0.60;;;14.00;55.10;;;;;;5491735;26;20811;-83
2024/04/09 07:27:16;;;;;;;13.20;0.73;;;14.00;47.40;;;;;;5459943;26;20584;-83
2024/04/09 07:29:41;;;;;;;12.23;0.73;;;14.00;49.30;;;;;;5460379;26;20441;-82
2024/04/09 07:32:07;;;;;;;13.87;0.80;;;14.00;45.00;;;;;;5492306;26;20220;-82
2024/04/09 07:34:34;;;;;;;13.87;0.70;;;13.90;48.10;;;;;;5460565;26;20686;-82
2024/04/09 07:37:00;;;;;;;12.43;0.83;;;14.00;47.70;;;;;;5491845;26;20445;-82
2024/04/09 07:39:26;;;;;;;13.50;0.70;;;13.90;64.00;;;;;;5459388;26;20501;-82
2024/04/09 07:41:52;;;;;;;12.50;0.77;;;14.00;80.20;;;;;;5492039;26;20461;-82
2024/04/09 07:44:26;;;;;;;12.47;0.80;;;14.00;73.80;;;;;;5492082;26;20438;-82
2024/04/09 07:46:52;;;;;;;12.27;0.70;;;14.10;75.20;;;;;;5492139;26;20208;-82
2024/04/09 07:49:18;;;;;;;12.77;0.70;;;14.10;78.80;;;;;;5459799;26;20489;-83
2024/04/09 07:51:44;;;;;;;12.77;0.83;;;14.00;69.60;;;;;;5491115;26;20231;-82
2024/04/09 07:54:10;;;;;;;12.43;0.70;;;14.10;52.10;;;;;;5491402;26;20580;-82
2024/04/09 07:56:36;;;;;;;14.80;0.77;;;14.20;50.00;;;;;;5459046;26;20449;-83
2024/04/09 07:59:02;;;;;;;15.93;1.77;;;14.30;60.30;;;;;;5491726;26;20486;-83
2024/04/09 08:01:28;;;;;;;13.97;1.30;;;14.40;38.30;;;;;;5490831;26;20516;-83
2024/04/09 08:03:54;;;;;;;13.10;1.00;;;14.40;38.30;;;;;;5458933;26;20453;-82
2024/04/09 08:06:27;;;;;;;12.57;0.90;;;14.40;37.40;;;;;;5491096;26;20526;-82
2024/04/09 08:08:54;;;;;;;12.27;0.83;;;14.50;36.20;;;;;;5492039;26;20433;-82
2024/04/09 08:11:20;;;;;;;12.13;0.73;;;14.40;17.50;;;;;;5492561;26;21020;-83
2024/04/09 08:13:46;;;;;;;12.17;0.70;;;14.40;15.60;;;;;;5459921;26;20490;-82
2024/04/09 08:16:12;;;;;;;15.90;1.23;;;14.20;3.70;;;;;;5491706;26;20262;-82
2024/04/09 08:18:38;;;;;;;13.43;1.33;;;14.20;9.50;;;;;;5491367;26;20208;-82
2024/04/09 08:21:05;;;;;;;14.03;0.90;;;14.30;10.60;;;;;;5491258;26;20483;-82
2024/04/09 08:23:30;;;;;;;13.50;0.90;;;14.40;1.00;;;;;;5459109;26;20493;-81
2024/04/09 08:25:58;;;;;;;12.90;0.87;;;14.40;2.20;;;;;;5509158;21;20496;-84
2024/04/09 08:28:23;;;;;;;13.20;0.80;;;14.60;10.40;;;;;;5381523;26;20446;-82
2024/04/09 08:30:50;;;;;;;13.47;0.80;;;14.70;12.00;;;;;;5383007;26;20525;-81
2024/04/09 08:33:17;;;;;;;13.00;1.00;;;14.60;10.40;;;;;;5381220;26;20266;-82
2024/04/09 08:35:50;;;;;;;13.80;1.00;;;14.60;1.00;;;;;;5383658;26;20809;-82
2024/04/09 08:38:20;;;;;;;15.90;1.00;;;14.60;1.00;;;;;;5383682;26;20438;-83
2024/04/09 08:40:46;;;;;;;13.20;0.80;;;14.50;1.00;;;;;;5381317;26;20558;-82
2024/04/09 08:43:15;;;;;;;12.70;1.03;;;14.50;1.00;;;;;;5383497;26;20469;-81
2024/04/09 08:45:42;;;;;;;13.10;0.87;;;14.50;4.60;;;;;;5383513;26;20484;-81
2024/04/09 08:48:10;;;;;;;13.40;1.00;;;14.50;6.10;;;;;;5383725;26;20453;-82
2024/04/09 08:50:38;;;;;;;13.33;1.00;;;14.50;1.00;;;;;;5383278;26;20556;-82
2024/04/09 08:53:04;;;;;;;13.00;0.90;;;14.60;2.60;;;;;;5383933;26;20506;-81
2024/04/09 08:55:31;;;;;;;13.20;1.00;;;14.40;1.00;;;;;;5384158;26;20437;-82
2024/04/09 08:57:57;;;;;;;14.63;1.60;;;14.30;1.00;;;;;;5382019;26;20512;-81
2024/04/09 09:00:22;;;;;;;13.70;1.20;;;14.50;1.00;;;;;;5383560;26;20513;-82
2024/04/09 09:02:48;;;;;;;13.60;1.00;;;14.50;1.00;;;;;;5384105;26;20223;-81
2024/04/09 09:05:18;;;;;;;15.13;0.93;;;14.40;1.00;;;;;;5386809;26;20258;-82
2024/04/09 09:07:44;;;;;;;12.50;0.80;;;14.50;1.00;;;;;;5453185;21;20255;-83
2024/04/09 09:10:13;;;;;;;12.37;0.80;;;14.50;1.00;;;;;;5384466;26;20834;-83
2024/04/09 09:12:39;;;;;;;19.73;1.67;;;14.40;1.00;;;;;;5386887;26;20569;-83
2024/04/09 09:15:05;;;;;;;13.30;1.17;;;14.30;1.00;;;;;;5386615;26;20484;-83
2024/04/09 09:17:33;;;;;;;15.47;1.43;;;14.30;1.00;;;;;;5386679;26;20488;-82
2024/04/09 09:20:01;;;;;;;12.90;1.00;;;14.30;1.00;;;;;;5386463;26;20430;-83
2024/04/09 09:22:35;;;;;;;16.60;1.53;;;14.30;1.00;;;;;;5384337;26;20469;-83
2024/04/09 09:25:01;;;;;;;13.40;1.30;;;14.20;1.00;;;;;;5386499;26;20960;-83
2024/04/09 09:27:29;;;;;;;13.10;1.00;;;14.30;1.00;;;;;;5386247;26;20441;-83
2024/04/09 09:29:56;;;;;;;15.17;1.63;;;14.30;1.00;;;;;;5384905;26;20505;-83
2024/04/09 09:32:23;;;;;;;14.53;1.10;;;14.40;1.00;;;;;;5384250;26;20516;-83
2024/04/09 09:34:53;;;;;;;13.47;0.80;;;14.50;1.00;;;;;;5384669;26;20448;-83
2024/04/09 09:37:19;;;;;;;16.23;1.20;;;14.60;1.00;;;;;;5386013;26;20493;-83
2024/04/09 09:39:46;;;;;;;12.37;1.03;;;14.80;1.00;;;;;;5386545;26;20433;-83
2024/04/09 09:42:13;;;;;;;17.20;1.10;;;15.00;1.00;;;;;;5385926;26;20538;-83
2024/04/09 09:44:40;;;;;;;12.60;0.97;;;15.30;1.00;;;;;;5384556;26;20492;-83
2024/04/09 09:47:07;;;;;;;13.30;1.17;;;15.50;1.00;;;;;;5386095;26;20553;-83
2024/04/09 09:49:34;;;;;;;14.80;1.30;;;15.80;1.00;;;;;;5386375;26;20438;-84
2024/04/09 09:52:01;;;;;;;13.07;1.30;;;15.90;1.00;;;;;;5386003;26;20935;-84
2024/04/09 09:54:29;;;;;;;13.90;1.13;;;15.90;1.00;;;;;;5386011;26;20437;-84
2024/04/09 09:57:01;;;;;;;17.33;1.07;;;15.90;1.00;;;;;;5384168;26;20497;-84
2024/04/09 09:59:38;;;;;;;13.80;1.10;;;15.90;1.00;;;;;;5385821;26;20438;-84
2024/04/09 10:02:05;;;;;;;13.80;1.23;;;15.80;1.00;;;;;;5385945;26;21001;-84
2024/04/09 10:04:31;;;;;;;20.00;0.80;;;15.50;1.00;;;;;;5385676;26;20493;-84
2024/04/09 10:07:03;;;;;;;12.83;1.20;;;15.60;1.00;;;;;;5400915;26;20537;-84
2024/04/09 10:09:44;;;;;;;15.20;1.00;;;15.30;1.00;;;;;;5421443;26;20536;-83
2024/04/09 10:12:23;;;;;;;12.17;1.00;;;15.30;1.00;;;;;;5389994;26;20508;-83
2024/04/09 10:15:16;;;;;;;15.50;1.00;;;15.30;1.00;;;;;;5420425;26;20475;-83
2024/04/09 10:17:52;;;;;;;12.27;1.00;;;15.30;1.00;;;;;;5421148;26;20393;-83
2024/04/09 10:20:23;;;;;;;12.03;0.80;;;15.20;1.00;;;;;;5389891;26;20448;-83
2024/04/09 10:22:52;;;;;;;11.97;0.97;;;15.20;1.00;;;;;;5420987;26;20591;-83
2024/04/09 10:25:22;;;;;;;13.20;1.00;;;15.30;1.00;;;;;;5421012;26;20800;-84
2024/04/09 10:28:06;;;;;;;12.97;1.30;;;15.20;1.00;;;;;;5422631;26;20554;-84
2024/04/09 10:30:33;;;;;;;14.40;1.10;;;15.10;1.00;;;;;;5389668;26;20452;-83
2024/04/09 10:33:06;;;;;;;18.23;2.03;;;15.10;1.00;;;;;;5389401;26;20817;-83
2024/04/09 10:35:32;;;;;;;13.27;0.97;;;15.10;1.00;;;;;;5420757;26;20391;-84
2024/04/09 10:38:04;;;;;;;13.10;1.10;;;15.20;1.00;;;;;;5360404;26;20510;-83
2024/04/09 10:40:33;;;;;;;12.50;0.90;;;15.20;1.00;;;;;;5389556;26;20460;-84
2024/04/09 10:43:01;;;;;;;12.00;1.03;;;15.20;1.00;;;;;;5420866;26;20512;-84
2024/04/09 10:45:26;;;;;;;16.50;1.67;;;15.20;1.00;;;;;;5420333;26;20479;-84
2024/04/09 10:47:52;;;;;;;14.03;1.10;;;15.20;1.00;;;;;;5420718;26;20527;-84
2024/04/09 10:50:18;;;;;;;11.97;0.70;;;15.30;1.00;;;;;;5420938;26;20684;-84
2024/04/09 10:52:45;;;;;;;13.03;0.90;;;15.30;1.00;;;;;;5423209;26;20717;-82
2024/04/09 10:55:15;;;;;;;13.53;1.00;;;15.40;1.00;;;;;;5391068;26;20245;-84
2024/04/09 10:57:44;;;;;;;21.10;1.30;;;15.50;1.00;;;;;;5388929;26;20456;-83
2024/04/09 11:00:14;;;;;;;22.07;1.20;;;15.50;1.00;;;;;;5420533;26;20432;-83
2024/04/09 11:02:42;;;;;;;14.60;0.97;;;15.20;1.00;;;;;;5420386;26;20548;-83
2024/04/09 11:05:09;;;;;;;13.33;1.00;;;15.30;1.00;;;;;;5420636;26;20522;-84
2024/04/09 11:07:39;;;;;;;12.60;0.80;;;15.40;1.00;;;;;;5420724;26;20504;-83
2024/04/09 11:10:07;;;;;;;12.60;1.20;;;15.60;1.00;;;;;;5388918;26;20834;-83
2024/04/09 11:12:36;;;;;;;14.10;1.57;;;15.80;1.00;;;;;;5420287;26;20516;-82
2024/04/09 11:15:03;;;;;;;12.73;1.13;;;15.60;1.00;;;;;;5420640;26;20432;-83
2024/04/09 11:17:29;;;;;;;15.87;1.23;;;15.60;1.00;;;;;;5420106;26;20904;-83
2024/04/09 11:20:11;;;;;;;12.40;0.80;;;15.70;1.00;;;;;;5420668;26;20523;-84
2024/04/09 11:22:41;;;;;;;12.30;1.00;;;15.80;1.00;;;;;;5420208;26;20448;-83
2024/04/09 11:25:13;;;;;;;13.63;1.20;;;15.90;1.00;;;;;;5388704;26;20459;-83
2024/04/09 11:27:43;;;;;;;14.13;1.10;;;16.00;1.00;;;;;;5387525;26;21046;-83
2024/04/09 11:30:11;;;;;;;14.87;1.40;;;15.80;1.00;;;;;;5420206;26;20479;-83
2024/04/09 11:32:38;;;;;;;13.40;1.30;;;15.90;1.00;;;;;;5388790;26;20468;-82
2024/04/09 11:35:19;;;;;;;13.53;1.20;;;15.80;1.00;;;;;;5421273;26;20499;-83
2024/04/09 11:37:52;;;;;;;14.20;1.20;;;16.20;1.00;;;;;;5419592;26;20412;-83
2024/04/09 11:40:25;;;;;;;15.53;1.87;;;16.10;1.00;;;;;;5420304;26;20500;-82
2024/04/09 11:42:52;;;;;;;12.97;1.13;;;16.50;1.00;;;;;;5419909;26;20522;-83
2024/04/09 11:45:22;;;;;;;12.90;1.20;;;16.40;1.00;;;;;;5420167;26;20490;-83
2024/04/09 11:47:48;;;;;;;14.50;1.10;;;16.30;1.00;;;;;;5388449;26;20448;-83
2024/04/09 11:50:14;;;;;;;14.10;0.90;;;16.10;1.00;;;;;;5419857;26;20384;-83
2024/04/09 11:52:41;;;;;;;11.93;0.90;;;16.40;1.00;;;;;;5388548;26;20468;-83
2024/04/09 11:55:08;;;;;;;12.93;1.47;;;16.60;1.00;;;;;;5419710;26;20494;-82
2024/04/09 11:57:36;;;;;;;15.77;1.10;;;16.80;1.00;;;;;;5419674;26;20445;-83
2024/04/09 12:00:03;;;;;;;13.47;1.10;;;17.00;1.00;;;;;;5419874;26;20436;-83
2024/04/09 12:02:29;;;;;;;13.17;0.80;;;17.10;1.00;;;;;;5419640;26;20456;-84
2024/04/09 12:04:54;;;;;;;13.17;1.63;;;17.00;1.00;;;;;;5419920;26;20443;-85
2024/04/09 12:07:20;;;;;;;12.83;1.30;;;17.20;1.00;;;;;;5419714;26;20511;-85
2024/04/09 12:09:46;;;;;;;14.20;1.10;;;16.90;1.00;;;;;;5419322;26;20210;-83
2024/04/09 12:12:12;;;;;;;12.40;0.80;;;16.50;1.00;;;;;;5387756;26;20669;-83
2024/04/09 12:14:41;;;;;;;15.13;0.80;;;16.50;1.00;;;;;;5420610;26;20717;-82
2024/04/09 12:17:07;;;;;;;13.80;1.40;;;16.30;1.00;;;;;;5389246;26;20233;-83
2024/04/09 12:19:35;;;;;;;13.70;1.03;;;16.40;1.00;;;;;;5418851;26;20949;-82
2024/04/09 12:22:01;;;;;;;11.80;0.80;;;16.60;1.00;;;;;;5418975;26;20516;-82
2024/04/09 12:24:27;;;;;;;12.40;0.97;;;17.00;1.00;;;;;;5387936;26;21011;-83
2024/04/09 12:26:54;;;;;;;15.20;1.07;;;17.00;1.00;;;;;;5419215;26;20444;-83
2024/04/09 12:29:22;;;;;;;14.43;1.07;;;17.10;1.00;;;;;;5387544;26;20460;-83
2024/04/09 12:31:48;;;;;;;14.37;2.00;;;16.80;1.00;;;;;;5419194;26;20499;-83
2024/04/09 12:34:14;;;;;;;13.67;1.63;;;17.00;1.00;;;;;;5418855;26;21013;-83
2024/04/09 12:36:40;;;;;;;11.90;0.90;;;17.40;1.00;;;;;;5387730;26;20444;-82
2024/04/09 12:39:05;;;;;;;19.03;1.30;;;17.50;1.00;;;;;;5386073;26;20396;-83
2024/04/09 12:41:31;;;;;;;13.67;1.20;;;17.60;1.00;;;;;;5418808;26;20563;-83
2024/04/09 12:43:57;;;;;;;12.30;1.00;;;17.40;1.00;;;;;;5419366;26;20210;-83
2024/04/09 12:46:22;;;;;;;14.33;1.13;;;17.50;1.00;;;;;;5418966;26;20508;-83
2024/04/09 12:48:48;;;;;;;18.00;1.10;;;17.40;1.00;;;;;;5387790;26;20222;-83